Time;durP1;ratioP1;P1;durP2;ratioP2;P2;SDS_P1;SDS_P2;PMS_P1;PMS_P2;Temp;Humidity;BMP_temperature;BMP_pressure;BME280_temperature;BME280_humidity;BME280_pressure;Samples;Min_cycle;Max_cycle;Signal;HPM_P1;HPM_P2
2023/09/26 00:00:27;;;;;;;5.63;4.40;;;;;;;14.31;100.00;102254.03;6279893;22;20082;-84
2023/09/26 00:02:54;;;;;;;4.30;4.00;;;;;;;14.27;100.00;102251.44;6280212;22;20043;-84
2023/09/26 00:05:23;;;;;;;6.93;4.15;;;;;;;14.26;100.00;102249.19;6278676;22;20012;-84
2023/09/26 00:07:51;;;;;;;3.92;3.63;;;;;;;14.21;100.00;102247.78;6279956;22;20544;-84
2023/09/26 00:10:19;;;;;;;3.88;3.58;;;;;;;14.19;100.00;102252.84;6279744;22;20462;-83
2023/09/26 00:12:46;;;;;;;4.18;3.85;;;;;;;14.17;100.00;102251.75;6280106;22;20020;-84
2023/09/26 00:15:13;;;;;;;4.55;3.92;;;;;;;14.14;100.00;102256.03;6279420;22;20051;-84
2023/09/26 00:17:39;;;;;;;3.83;3.63;;;;;;;14.06;100.00;102249.38;6279604;22;20017;-84
2023/09/26 00:20:40;;;;;;;4.57;3.70;;;;;;;14.03;100.00;102253.66;6279069;22;20016;-84
2023/09/26 00:23:00;;;;;;;4.00;3.70;;;;;;;13.96;100.00;102250.47;6276732;22;20473;-85
2023/09/26 00:25:27;;;;;;;4.15;3.80;;;;;;;13.92;100.00;102242.53;6277602;22;20016;-85
2023/09/26 00:27:53;;;;;;;5.70;3.88;;;;;;;13.92;100.00;102233.75;6252676;22;20024;-85
2023/09/26 00:30:21;;;;;;;3.97;3.60;;;;;;;13.89;100.00;102243.38;6279165;22;20091;-84
2023/09/26 00:32:48;;;;;;;4.93;4.00;;;;;;;13.87;100.00;102243.06;6278348;22;20020;-84
2023/09/26 00:35:15;;;;;;;5.15;4.68;;;;;;;13.84;100.00;102253.84;6278958;22;20078;-84
2023/09/26 00:37:47;;;;;;;4.55;4.15;;;;;;;13.80;100.00;102247.84;6279653;22;20027;-84
2023/09/26 00:40:17;;;;;;;7.22;4.80;;;;;;;13.79;100.00;102251.69;6279365;22;20012;-85
2023/09/26 00:42:44;;;;;;;5.10;4.70;;;;;;;13.77;100.00;102256.72;6279641;22;20016;-84
2023/09/26 00:45:12;;;;;;;4.82;4.38;;;;;;;13.75;100.00;102251.03;6252878;22;20586;-85
2023/09/26 00:47:40;;;;;;;5.72;5.03;;;;;;;13.74;100.00;102246.88;6280349;22;20047;-85
2023/09/26 00:50:10;;;;;;;6.80;6.10;;;;;;;13.72;100.00;102249.22;6278736;22;20020;-83
2023/09/26 00:52:39;;;;;;;6.80;6.13;;;;;;;13.69;100.00;102240.84;6280901;22;20067;-84
2023/09/26 00:55:07;;;;;;;6.20;5.70;;;;;;;13.68;100.00;102228.66;6279793;22;20530;-83
2023/09/26 00:57:35;;;;;;;14.70;6.70;;;;;;;13.67;100.00;102237.09;6280553;22;20043;-84
2023/09/26 01:00:03;;;;;;;7.97;5.78;;;;;;;13.66;100.00;102240.94;6279081;22;20454;-84
2023/09/26 01:02:33;;;;;;;6.60;6.00;;;;;;;13.64;100.00;102244.06;6279874;22;20438;-84
2023/09/26 01:05:00;;;;;;;6.75;6.05;;;;;;;13.58;100.00;102243.09;6279996;22;20162;-84
2023/09/26 01:07:27;;;;;;;7.88;6.00;;;;;;;13.57;100.00;102233.56;6280405;22;20052;-84
2023/09/26 01:09:55;;;;;;;6.10;5.50;;;;;;;13.56;100.00;102242.00;6281384;22;20016;-84
2023/09/26 01:12:22;;;;;;;5.90;5.45;;;;;;;13.55;100.00;102237.84;6280078;22;20472;-84
2023/09/26 01:14:48;;;;;;;5.97;4.70;;;;;;;13.51;100.00;102245.19;6278469;22;20570;-83
2023/09/26 01:17:15;;;;;;;4.68;4.15;;;;;;;13.47;100.00;102245.28;6280223;22;20023;-84
2023/09/26 01:19:41;;;;;;;4.93;4.35;;;;;;;13.45;100.00;102242.28;6280792;22;20016;-84
2023/09/26 01:22:08;;;;;;;4.78;4.38;;;;;;;13.42;100.00;102243.13;6278211;22;20058;-84
2023/09/26 01:24:37;;;;;;;5.13;4.45;;;;;;;13.39;100.00;102246.66;6278837;22;20013;-84
2023/09/26 01:27:04;;;;;;;4.95;4.45;;;;;;;13.39;100.00;102238.63;6281172;22;20070;-84
2023/09/26 01:29:31;;;;;;;5.03;4.63;;;;;;;13.40;100.00;102234.03;6278539;22;20507;-84
2023/09/26 01:31:57;;;;;;;4.28;3.97;;;;;;;13.38;100.00;102233.69;6278745;22;20020;-83
2023/09/26 01:34:24;;;;;;;7.45;4.65;;;;;;;13.35;100.00;102233.38;6278173;22;20020;-84
2023/09/26 01:36:51;;;;;;;4.68;4.38;;;;;;;13.36;100.00;102234.13;6279208;22;20020;-84
2023/09/26 01:39:18;;;;;;;4.80;4.35;;;;;;;13.34;100.00;102229.19;6279109;22;20087;-84
2023/09/26 01:41:46;;;;;;;4.53;4.18;;;;;;;13.31;100.00;102224.69;6279226;22;20485;-84
2023/09/26 01:44:12;;;;;;;8.60;4.90;;;;;;;13.30;100.00;102220.50;6280741;22;20016;-83
2023/09/26 01:46:39;;;;;;;4.53;4.20;;;;;;;13.29;100.00;102223.59;6280020;22;20094;-84
2023/09/26 01:49:06;;;;;;;4.28;3.88;;;;;;;13.26;100.00;102222.53;6280667;22;20446;-83
2023/09/26 01:51:34;;;;;;;3.97;3.70;;;;;;;13.23;100.00;102215.34;6278962;22;20515;-84
2023/09/26 01:54:00;;;;;;;5.30;3.92;;;;;;;13.22;100.00;102216.50;6280931;22;20024;-84
2023/09/26 01:56:27;;;;;;;4.40;4.10;;;;;;;13.17;100.00;102218.97;6279754;22;20028;-84
2023/09/26 01:58:55;;;;;;;4.07;3.80;;;;;;;13.14;100.00;102212.50;6279449;22;20020;-84
2023/09/26 02:01:21;;;;;;;4.82;4.43;;;;;;;13.13;100.00;102207.59;6252559;22;20096;-84
2023/09/26 02:03:48;;;;;;;5.25;4.85;;;;;;;13.10;100.00;102211.09;6279079;22;20031;-84
2023/09/26 02:06:15;;;;;;;5.88;5.28;;;;;;;13.08;100.00;102210.75;6280655;22;20442;-84
2023/09/26 02:08:41;;;;;;;6.70;6.00;;;;;;;13.06;100.00;102221.13;6279048;22;20311;-83
2023/09/26 02:11:08;;;;;;;10.38;5.93;;;;;;;12.99;100.00;102214.78;6278644;22;20020;-85
2023/09/26 02:13:35;;;;;;;6.40;5.57;;;;;;;13.00;100.00;102223.56;6280435;22;20016;-84
2023/09/26 02:16:01;;;;;;;6.57;5.50;;;;;;;12.97;100.00;102209.09;6278552;22;20020;-84
2023/09/26 02:18:28;;;;;;;6.05;5.53;;;;;;;12.95;100.00;102216.78;6278140;22;20024;-84
2023/09/26 02:20:55;;;;;;;7.50;6.82;;;;;;;12.95;100.00;102214.13;6278797;22;20027;-84
2023/09/26 02:23:21;;;;;;;7.30;6.70;;;;;;;12.97;100.00;102213.69;6277989;22;20012;-84
2023/09/26 02:25:52;;;;;;;10.15;7.38;;;;;;;12.98;100.00;102209.84;6281125;22;20016;-84
2023/09/26 02:28:20;;;;;;;8.88;8.07;;;;;;;12.95;100.00;102214.13;6252725;22;20446;-85
2023/09/26 02:30:47;;;;;;;9.65;8.70;;;;;;;12.95;100.00;102210.69;6278700;22;20492;-85
2023/09/26 02:33:14;;;;;;;9.65;8.77;;;;;;;12.92;100.00;102206.94;6280170;22;20028;-85
2023/09/26 02:35:40;;;;;;;10.88;9.20;;;;;;;12.91;100.00;102188.66;6280265;22;20074;-84
2023/09/26 02:38:08;;;;;;;14.90;10.30;;;;;;;12.89;100.00;102182.97;6280021;22;20022;-84
2023/09/26 02:40:34;;;;;;;14.10;9.85;;;;;;;12.86;100.00;102179.22;6253105;22;20420;-83
2023/09/26 02:43:01;;;;;;;16.13;11.40;;;;;;;12.86;100.00;102171.19;6281262;22;20446;-84
2023/09/26 02:45:29;;;;;;;11.27;10.10;;;;;;;12.85;100.00;102175.03;6277905;22;20063;-85
2023/09/26 02:47:56;;;;;;;11.80;10.60;;;;;;;12.82;100.00;102178.56;6280819;22;20516;-85
2023/09/26 02:50:24;;;;;;;10.65;9.40;;;;;;;12.79;100.00;102184.75;6279960;22;20399;-84
2023/09/26 02:52:52;;;;;;;9.98;8.80;;;;;;;12.77;100.00;102200.47;6280604;22;20052;-85
2023/09/26 02:55:20;;;;;;;11.55;7.95;;;;;;;12.74;100.00;102195.94;6252732;22;20024;-84
2023/09/26 02:57:46;;;;;;;9.50;7.75;;;;;;;12.73;100.00;102199.03;6280253;22;20016;-85
2023/09/26 03:00:16;;;;;;;8.57;6.60;;;;;;;12.70;100.00;102195.28;6279708;22;20082;-85
2023/09/26 03:02:45;;;;;;;9.25;6.93;;;;;;;12.66;100.00;102190.03;6280662;22;20012;-85
2023/09/26 03:05:14;;;;;;;7.30;6.60;;;;;;;12.62;100.00;102188.59;6280194;22;20056;-85
2023/09/26 03:07:42;;;;;;;6.50;5.95;;;;;;;12.61;100.00;102187.09;6279398;22;20446;-84
2023/09/26 03:10:08;;;;;;;7.65;6.72;;;;;;;12.60;100.00;102180.25;6278309;22;20094;-85
2023/09/26 03:12:35;;;;;;;10.63;6.00;;;;;;;12.59;100.00;102179.50;6279354;22;20055;-85
2023/09/26 03:15:02;;;;;;;7.47;6.40;;;;;;;12.55;100.00;102173.50;6278810;22;20046;-86
2023/09/26 03:17:29;;;;;;;7.57;6.90;;;;;;;12.55;100.00;102168.16;6278042;22;20024;-86
2023/09/26 03:19:56;;;;;;;6.85;6.22;;;;;;;12.52;100.00;102173.56;6280502;22;20107;-85
2023/09/26 03:22:23;;;;;;;7.68;6.53;;;;;;;12.48;100.00;102170.22;6277623;22;20023;-85
2023/09/26 03:24:49;;;;;;;7.22;6.53;;;;;;;12.47;100.00;102164.13;6280150;22;20436;-85
2023/09/26 03:27:16;;;;;;;8.07;7.00;;;;;;;12.45;100.00;102163.81;6252265;22;20052;-85
2023/09/26 03:29:43;;;;;;;7.50;6.90;;;;;;;12.45;100.00;102169.16;6280269;22;20018;-86
2023/09/26 03:32:10;;;;;;;7.55;6.85;;;;;;;12.45;100.00;102168.38;6253059;22;20020;-87
2023/09/26 03:34:37;;;;;;;9.27;7.10;;;;;;;12.42;100.00;102169.97;6252822;22;20031;-86
2023/09/26 03:37:04;;;;;;;7.53;6.93;;;;;;;12.42;100.00;102174.56;6279078;22;20013;-86
2023/09/26 03:39:30;;;;;;;7.05;6.45;;;;;;;12.40;100.00;102174.97;6278596;22;20015;-87
2023/09/26 03:41:57;;;;;;;6.47;5.82;;;;;;;12.38;100.00;102172.00;6278341;22;20012;-87
2023/09/26 03:44:24;;;;;;;6.60;6.10;;;;;;;12.37;100.00;102172.41;6280331;22;20121;-87
2023/09/26 03:46:50;;;;;;;8.50;6.25;;;;;;;12.37;100.00;102175.09;6305332;22;20020;-87
2023/09/26 03:49:17;;;;;;;7.90;6.43;;;;;;;12.35;100.00;102170.16;6279175;22;20536;-87
2023/09/26 03:51:44;;;;;;;6.45;5.95;;;;;;;12.34;100.00;102169.41;6278621;22;20026;-87
2023/09/26 03:54:10;;;;;;;7.63;6.20;;;;;;;12.32;100.00;102160.31;6252908;22;20028;-86
2023/09/26 03:56:37;;;;;;;9.93;6.57;;;;;;;12.32;100.00;102157.66;6278294;22;20019;-86
2023/09/26 03:59:03;;;;;;;7.13;6.40;;;;;;;12.30;100.00;102155.38;6280593;22;20012;-86
2023/09/26 04:01:30;;;;;;;6.93;6.15;;;;;;;12.27;100.00;102145.53;6280082;22;20479;-86
2023/09/26 04:03:57;;;;;;;7.70;6.72;;;;;;;12.26;100.00;102157.38;6252934;22;20095;-86
2023/09/26 04:06:23;;;;;;;6.97;6.20;;;;;;;12.26;100.00;102151.28;6278124;22;20087;-87
2023/09/26 04:08:50;;;;;;;7.07;6.28;;;;;;;12.25;100.00;102145.22;6278758;22;20016;-86
2023/09/26 04:11:17;;;;;;;7.20;6.65;;;;;;;12.24;100.00;102140.28;6277905;22;20019;-86
2023/09/26 04:13:44;;;;;;;7.47;6.32;;;;;;;12.24;100.00;102151.72;6278262;22;20024;-86
2023/09/26 04:16:11;;;;;;;7.07;6.45;;;;;;;12.20;100.00;102145.69;6280038;22;20023;-86
2023/09/26 04:18:38;;;;;;;8.30;7.07;;;;;;;12.20;100.00;102144.94;6280114;22;20195;-85
2023/09/26 04:21:06;;;;;;;7.40;6.70;;;;;;;12.19;100.00;102141.53;6280988;22;20407;-85
2023/09/26 04:23:38;;;;;;;6.80;6.20;;;;;;;12.20;100.00;102137.69;6281479;22;20521;-85
2023/09/26 04:26:15;;;;;;;6.80;6.22;;;;;;;12.22;100.00;102134.59;6281295;22;20016;-85
2023/09/26 04:28:42;;;;;;;6.93;6.32;;;;;;;12.21;100.00;102131.19;6280960;22;20389;-85
2023/09/26 04:31:17;;;;;;;7.50;6.68;;;;;;;12.23;100.00;102133.44;6279279;22;20043;-85
2023/09/26 04:33:48;;;;;;;9.02;7.20;;;;;;;12.21;100.00;102128.50;6279975;22;20020;-85
2023/09/26 04:36:15;;;;;;;9.10;8.20;;;;;;;12.21;100.00;102114.41;6279697;22;20023;-85
2023/09/26 04:38:42;;;;;;;13.85;9.30;;;;;;;12.19;100.00;102114.81;6281147;22;20212;-85
2023/09/26 04:41:09;;;;;;;12.85;9.65;;;;;;;12.19;100.00;102112.16;6280735;22;20021;-86
2023/09/26 04:43:36;;;;;;;11.25;9.60;;;;;;;12.20;100.00;102116.34;6281625;22;20458;-86
2023/09/26 04:46:09;;;;;;;10.43;9.43;;;;;;;12.20;100.00;102123.59;6282413;22;20036;-86
2023/09/26 04:48:36;;;;;;;10.07;8.98;;;;;;;12.17;100.00;102117.16;6282168;22;20012;-86
2023/09/26 04:51:07;;;;;;;11.73;8.93;;;;;;;12.16;100.00;102107.66;6281910;22;20019;-85
2023/09/26 04:53:33;;;;;;;13.17;9.23;;;;;;;12.15;100.00;102116.81;6281445;22;20020;-85
2023/09/26 04:56:03;;;;;;;8.43;7.78;;;;;;;12.14;100.00;102117.25;6281467;22;20020;-84
2023/09/26 04:58:32;;;;;;;11.25;8.73;;;;;;;12.13;100.00;102110.41;6279304;22;20070;-84
2023/09/26 05:01:03;;;;;;;11.15;8.10;;;;;;;12.11;100.00;102113.50;6281296;22;20020;-84
2023/09/26 05:03:29;;;;;;;9.15;7.93;;;;;;;12.08;100.00;102110.91;6280846;22;20016;-84
2023/09/26 05:05:56;;;;;;;9.77;8.00;;;;;;;12.06;100.00;102116.66;6281615;22;20040;-85
2023/09/26 05:08:22;;;;;;;8.02;7.25;;;;;;;12.05;100.00;102117.81;6280393;22;20508;-85
2023/09/26 05:10:50;;;;;;;13.52;7.55;;;;;;;12.04;100.00;102129.66;6281615;22;20442;-84
2023/09/26 05:13:16;;;;;;;8.32;7.53;;;;;;;12.02;100.00;102123.97;6280923;22;20071;-85
2023/09/26 05:15:43;;;;;;;8.65;7.95;;;;;;;12.01;100.00;102111.81;6253527;22;20016;-84
2023/09/26 05:18:09;;;;;;;8.73;7.35;;;;;;;12.00;100.00;102121.72;6279409;22;20020;-85
2023/09/26 05:20:36;;;;;;;7.95;7.10;;;;;;;12.01;100.00;102112.56;6280074;22;20039;-85
2023/09/26 05:23:03;;;;;;;8.13;7.47;;;;;;;12.03;100.00;102120.16;6253428;22;20477;-85
2023/09/26 05:25:33;;;;;;;10.50;7.80;;;;;;;12.05;100.00;102117.06;6280294;22;20043;-85
2023/09/26 05:27:59;;;;;;;8.57;7.78;;;;;;;12.07;100.00;102118.16;6280773;22;20012;-86
2023/09/26 05:30:27;;;;;;;15.13;8.80;;;;;;;12.07;100.00;102112.81;6280060;22;20016;-85
2023/09/26 05:32:53;;;;;;;10.13;8.60;;;;;;;12.08;100.00;102113.56;6281834;22;20031;-90
2023/09/26 05:35:23;;;;;;;12.48;8.68;;;;;;;12.08;100.00;102122.31;6279770;22;20054;-88
2023/09/26 05:37:50;;;;;;;9.85;8.70;;;;;;;12.05;100.00;102119.72;6254671;22;20020;-82
2023/09/26 05:40:16;;;;;;;9.77;8.82;;;;;;;12.05;100.00;102130.41;6281378;22;20942;-86
2023/09/26 05:42:43;;;;;;;12.73;8.30;;;;;;;12.06;100.00;102130.00;6282387;22;20022;-87
2023/09/26 05:45:11;;;;;;;8.80;7.90;;;;;;;12.08;100.00;102124.25;6282024;22;20386;-89
2023/09/26 05:47:38;;;;;;;10.10;8.23;;;;;;;12.06;100.00;102129.25;6281527;22;20428;-89
2023/09/26 05:50:06;;;;;;;8.63;7.82;;;;;;;12.05;100.00;102141.09;6284950;22;20139;-92
2023/09/26 05:52:33;;;;;;;9.23;8.27;;;;;;;12.06;100.00;102137.25;6283068;22;20075;-92
2023/09/26 05:54:59;;;;;;;9.85;8.18;;;;;;;12.07;100.00;102136.09;6282627;22;20164;-92
2023/09/26 05:57:29;;;;;;;13.60;8.60;;;;;;;12.06;100.00;102122.00;6281246;22;20018;-82
2023/09/26 05:59:55;;;;;;;9.63;8.00;;;;;;;12.09;100.00;102123.81;6282648;22;20016;-84
2023/09/26 06:02:22;;;;;;;9.18;7.63;;;;;;;12.13;100.00;102123.75;6281355;22;20087;-87
2023/09/26 06:04:50;;;;;;;9.32;8.43;;;;;;;12.16;100.00;102123.66;6281283;22;20401;-82
2023/09/26 06:07:17;;;;;;;9.20;8.23;;;;;;;12.19;100.00;102125.50;6280175;22;20012;-83
2023/09/26 06:09:44;;;;;;;9.25;8.32;;;;;;;12.23;100.00;102134.19;6279116;22;20023;-83
2023/09/26 06:12:30;;;;;;;9.43;8.38;;;;;;;12.27;100.00;102128.78;6280263;22;20023;-84
2023/09/26 06:14:57;;;;;;;9.38;8.50;;;;;;;12.29;100.00;102129.84;6280660;22;20016;-83
2023/09/26 06:17:23;;;;;;;9.23;8.30;;;;;;;12.32;100.00;102130.94;6279044;22;20016;-90
2023/09/26 06:19:50;;;;;;;10.10;8.50;;;;;;;12.37;100.00;102130.44;6278983;22;20020;-88
2023/09/26 06:22:17;;;;;;;10.68;7.93;;;;;;;12.41;100.00;102133.00;6279984;22;20020;-88
2023/09/26 06:24:44;;;;;;;8.95;8.15;;;;;;;12.45;100.00;102131.00;6278751;22;20015;-83
2023/09/26 06:27:11;;;;;;;9.77;8.13;;;;;;;12.49;100.00;102127.09;6279374;22;20442;-86
2023/09/26 06:29:39;;;;;;;10.35;8.35;;;;;;;12.54;100.00;102125.81;6278831;22;20016;-89
2023/09/26 06:32:05;;;;;;;9.43;8.45;;;;;;;12.59;100.00;102128.00;6279685;22;20024;-86
2023/09/26 06:34:34;;;;;;;12.35;9.68;;;;;;;12.64;100.00;102128.25;6279456;22;20413;-85
2023/09/26 06:37:02;;;;;;;12.50;10.00;;;;;;;12.69;100.00;102125.06;6278746;22;20020;-87
2023/09/26 06:39:29;;;;;;;15.55;11.35;;;;;;;12.76;100.00;102126.06;6280737;22;20394;-87
2023/09/26 06:41:56;;;;;;;14.55;11.38;;;;;;;12.80;100.00;102124.78;6279422;22;20020;-92
2023/09/26 06:44:23;;;;;;;15.70;11.23;;;;;;;12.86;100.00;102127.69;6279684;22;20071;-88
2023/09/26 06:46:51;;;;;;;13.05;11.65;;;;;;;12.95;100.00;102125.91;6281141;22;20040;-88
2023/09/26 06:49:18;;;;;;;14.45;12.00;;;;;;;13.07;100.00;102126.38;6280106;22;20019;-86
2023/09/26 06:51:45;;;;;;;21.15;12.75;;;;;;;13.15;100.00;102123.09;6280341;22;20433;-88
2023/09/26 06:54:12;;;;;;;18.92;12.10;;;;;;;13.23;100.00;102126.34;6279710;22;20021;-89
2023/09/26 06:56:38;;;;;;;16.52;12.40;;;;;;;13.30;100.00;102124.22;6280427;22;20013;-90
2023/09/26 06:59:05;;;;;;;15.65;12.05;;;;;;;13.40;100.00;102129.72;6281378;22;20039;-88
2023/09/26 07:01:32;;;;;;;19.60;11.80;;;;;;;13.44;100.00;102128.44;6279114;22;20020;-87
2023/09/26 07:03:59;;;;;;;17.58;11.60;;;;;;;13.49;100.00;102130.59;6278877;22;20020;-86
2023/09/26 07:06:26;;;;;;;14.45;12.07;;;;;;;13.52;100.00;102123.63;6277955;22;20453;-86
2023/09/26 07:08:55;;;;;;;14.13;12.60;;;;;;;13.55;100.00;102134.25;6281241;22;20439;-85
2023/09/26 07:11:22;;;;;;;17.75;11.77;;;;;;;13.57;100.00;102131.16;6280781;22;20472;-83
2023/09/26 07:13:49;;;;;;;15.45;12.15;;;;;;;13.59;100.00;102131.47;6280809;22;20504;-87
2023/09/26 07:16:16;;;;;;;16.58;12.73;;;;;;;13.61;100.00;102129.84;6280238;22;20016;-77
2023/09/26 07:18:42;;;;;;;15.93;12.38;;;;;;;13.63;100.00;102124.81;6279844;22;20428;-76
2023/09/26 07:21:09;;;;;;;14.13;12.25;;;;;;;13.66;100.00;102113.25;6279970;22;20016;-84
2023/09/26 07:23:37;;;;;;;17.05;12.68;;;;;;;13.68;100.00;102113.59;6280592;22;20016;-90
2023/09/26 07:26:20;;;;;;;20.10;13.30;;;;;;;13.72;100.00;102128.78;6282703;22;20026;-89
2023/09/26 07:28:48;;;;;;;13.05;11.75;;;;;;;13.76;100.00;102113.38;6283840;22;20020;-90
2023/09/26 07:31:18;;;;;;;16.35;13.02;;;;;;;13.76;100.00;102118.72;6253775;22;20096;-84
2023/09/26 07:33:45;;;;;;;13.93;12.48;;;;;;;13.80;100.00;102116.69;6277721;22;20016;-81
2023/09/26 07:36:13;;;;;;;21.38;13.20;;;;;;;13.85;100.00;102116.91;6280089;22;20433;-84
2023/09/26 07:38:40;;;;;;;14.30;12.63;;;;;;;13.91;100.00;102123.25;6280048;22;20023;-82
2023/09/26 07:41:07;;;;;;;13.85;12.43;;;;;;;13.97;100.00;102118.09;6280212;22;20020;-81
2023/09/26 07:43:33;;;;;;;13.77;12.43;;;;;;;14.03;100.00;102121.72;6278466;22;20542;-84
2023/09/26 07:46:09;;;;;;;14.95;12.82;;;;;;;14.11;100.00;102120.31;6280740;22;20035;-87
2023/09/26 07:48:37;;;;;;;13.57;12.23;;;;;;;14.16;100.00;102127.06;6279737;22;20530;-80
2023/09/26 07:51:09;;;;;;;16.20;12.95;;;;;;;14.23;100.00;102116.88;6280073;22;20486;-85
2023/09/26 07:53:40;;;;;;;14.20;12.88;;;;;;;14.29;100.00;102115.16;6278057;22;20087;-85
2023/09/26 07:56:07;;;;;;;16.58;12.50;;;;;;;14.36;100.00;102111.50;6281009;22;20012;-87
2023/09/26 07:58:34;;;;;;;13.70;12.25;;;;;;;14.42;100.00;102107.09;6254014;22;20051;-85
2023/09/26 08:01:06;;;;;;;15.57;12.63;;;;;;;14.50;100.00;102096.91;6280938;22;20082;-82
2023/09/26 08:03:33;;;;;;;14.40;12.90;;;;;;;14.55;100.00;102101.72;6280566;22;20051;-84
2023/09/26 08:06:02;;;;;;;15.18;12.55;;;;;;;14.59;100.00;102103.09;6254022;22;20020;-83
2023/09/26 08:08:31;;;;;;;14.90;12.80;;;;;;;14.71;100.00;102100.81;6280265;22;20071;-77
2023/09/26 08:11:10;;;;;;;16.95;12.63;;;;;;;14.85;100.00;102105.69;6281355;22;20048;-78
2023/09/26 08:13:39;;;;;;;12.80;11.50;;;;;;;14.97;99.42;102107.56;6281458;22;20040;-82
2023/09/26 08:16:07;;;;;;;15.10;12.88;;;;;;;15.11;98.39;102112.44;6281232;22;20020;-82
2023/09/26 08:18:34;;;;;;;14.15;12.52;;;;;;;15.27;98.10;102114.16;6278260;22;20016;-82
2023/09/26 08:21:00;;;;;;;20.27;12.32;;;;;;;15.42;97.27;102117.81;6281189;22;20474;-84
2023/09/26 08:23:30;;;;;;;18.45;12.13;;;;;;;15.51;96.28;102107.13;6280317;22;20036;-85
2023/09/26 08:26:03;;;;;;;17.58;12.27;;;;;;;15.62;96.47;102109.41;6281535;22;20016;-83
2023/09/26 08:28:30;;;;;;;15.20;12.50;;;;;;;15.71;95.86;102120.22;6280683;22;20020;-84
2023/09/26 08:31:03;;;;;;;14.70;12.02;;;;;;;15.78;94.01;102119.19;6281611;22;20336;-86
2023/09/26 08:33:29;;;;;;;14.75;11.55;;;;;;;15.87;93.96;102119.22;6278301;22;20027;-83
2023/09/26 08:35:56;;;;;;;13.60;11.75;;;;;;;15.93;93.31;102122.84;6281249;22;20020;-82
2023/09/26 08:38:23;;;;;;;16.15;12.13;;;;;;;15.99;92.62;102124.47;6280330;22;20039;-79
2023/09/26 08:40:56;;;;;;;12.25;11.15;;;;;;;16.07;92.67;102122.25;6281245;22;20038;-81
2023/09/26 08:43:24;;;;;;;13.38;11.65;;;;;;;16.17;92.09;102117.66;6281505;22;20012;-83
2023/09/26 08:45:52;;;;;;;14.85;11.52;;;;;;;16.27;91.02;102119.19;6281626;22;20016;-83
2023/09/26 08:48:19;;;;;;;12.68;11.23;;;;;;;16.46;90.42;102117.25;6283224;22;20556;-84
2023/09/26 08:50:46;;;;;;;12.77;10.68;;;;;;;16.58;89.38;102121.75;6280885;22;20096;-80
2023/09/26 08:53:13;;;;;;;11.68;10.68;;;;;;;16.80;89.32;102118.91;6280732;22;20054;-78
2023/09/26 08:55:40;;;;;;;17.55;11.18;;;;;;;16.99;89.06;102110.41;6280750;22;20022;-85
2023/09/26 08:58:06;;;;;;;14.75;11.15;;;;;;;17.12;87.71;102096.03;6281036;22;20022;-86
2023/09/26 09:00:33;;;;;;;15.02;10.80;;;;;;;17.05;85.89;102101.72;6280706;22;20016;-84
2023/09/26 09:03:00;;;;;;;15.57;11.68;;;;;;;17.02;86.30;102092.59;6281011;22;20012;-83
2023/09/26 09:05:26;;;;;;;17.70;11.50;;;;;;;17.08;85.90;102095.44;6278606;22;20016;-84
2023/09/26 09:07:53;;;;;;;15.60;11.23;;;;;;;17.16;86.49;102093.94;6281002;22;20509;-83
2023/09/26 09:10:21;;;;;;;14.55;10.82;;;;;;;17.29;86.18;102094.47;6280094;22;20052;-83
2023/09/26 09:12:49;;;;;;;14.48;11.35;;;;;;;17.43;85.45;102093.09;6281187;22;20023;-82
2023/09/26 09:15:17;;;;;;;11.90;10.65;;;;;;;17.52;84.13;102093.81;6280297;22;20044;-82
2023/09/26 09:17:49;;;;;;;16.58;11.98;;;;;;;17.62;83.74;102081.03;6279436;22;20013;-83
2023/09/26 09:20:31;;;;;;;11.68;10.45;;;;;;;17.73;82.35;102080.56;6280778;22;20028;-82
2023/09/26 09:23:05;;;;;;;15.77;11.85;;;;;;;17.85;83.19;102077.66;6282657;22;20023;-86
2023/09/26 09:25:34;;;;;;;16.85;11.80;;;;;;;17.93;83.23;102072.69;6294146;22;20429;-86
2023/09/26 09:28:04;;;;;;;16.42;12.40;;;;;;;18.01;82.20;102076.50;6285537;22;20019;-87
2023/09/26 09:30:58;;;;;;;14.05;11.13;;;;;;;18.21;82.35;102070.56;6279018;22;20103;-88
2023/09/26 09:33:26;;;;;;;15.27;10.65;;;;;;;18.35;80.75;102077.19;6277800;22;20516;-90
2023/09/26 09:35:53;;;;;;;13.35;11.48;;;;;;;18.51;80.09;102082.13;6280214;22;21189;-89
2023/09/26 09:38:20;;;;;;;15.85;10.85;;;;;;;18.65;80.17;102081.47;6283493;22;20009;-92
2023/09/26 09:40:47;;;;;;;16.20;10.35;;;;;;;18.80;79.17;102084.16;6282286;22;20454;-86
2023/09/26 09:43:14;;;;;;;11.82;10.27;;;;;;;18.89;78.23;102082.13;6280651;22;20016;-88
2023/09/26 09:45:42;;;;;;;10.25;9.25;;;;;;;18.92;76.85;102081.19;6278431;22;20035;-86
2023/09/26 09:48:09;;;;;;;10.50;8.98;;;;;;;18.91;76.70;102082.41;6280441;22;20062;-81
2023/09/26 09:50:39;;;;;;;9.63;8.18;;;;;;;18.91;77.41;102078.97;6280531;22;20020;-79
2023/09/26 09:53:08;;;;;;;10.07;8.90;;;;;;;18.89;77.14;102081.38;6280816;22;20517;-80
2023/09/26 09:55:39;;;;;;;9.82;8.70;;;;;;;18.92;76.13;102080.44;6280484;22;20024;-84
2023/09/26 09:58:11;;;;;;;9.75;8.80;;;;;;;18.95;77.56;102077.56;6279506;22;20078;-81
2023/09/26 10:00:40;;;;;;;10.00;8.80;;;;;;;19.00;77.55;102068.06;6279468;22;20281;-82
2023/09/26 10:03:08;;;;;;;10.40;8.50;;;;;;;19.09;77.16;102073.38;6280505;22;20012;-79
2023/09/26 10:05:34;;;;;;;9.88;8.20;;;;;;;19.09;75.96;102073.38;6280372;22;20016;-86
2023/09/26 10:08:06;;;;;;;11.52;8.75;;;;;;;19.09;76.53;102073.38;6280804;22;20061;-81
2023/09/26 10:10:33;;;;;;;;;;;;;;;19.15;77.92;102078.88;6279372;22;20040;-79
2023/09/26 10:13:01;;;;;;;10.68;8.15;;;;;;;19.22;77.83;102073.81;6280286;22;19926;-80
2023/09/26 10:16:14;;;;;;;13.50;8.30;;;;;;;19.29;78.54;102083.50;6280712;22;20038;-79
2023/09/26 10:18:44;;;;;;;9.70;8.25;;;;;;;19.30;76.40;102082.28;6279820;22;20507;-78
2023/09/26 10:21:29;;;;;;;9.45;8.00;;;;;;;19.31;77.73;102076.41;6279741;22;20008;-78
2023/09/26 10:24:05;;;;;;;11.07;7.90;;;;;;;19.37;77.92;102075.75;6280463;22;20078;-79
2023/09/26 10:26:33;;;;;;;9.05;8.15;;;;;;;19.38;77.46;102075.28;6280095;22;20417;-78
2023/09/26 10:29:20;;;;;;;8.57;7.72;;;;;;;19.47;77.96;102066.34;6280241;22;20472;-79
2023/09/26 10:31:53;;;;;;;9.13;8.18;;;;;;;19.59;77.96;102062.63;6279371;22;20032;-84
2023/09/26 10:34:28;;;;;;;8.95;8.15;;;;;;;19.75;77.86;102069.44;6278093;22;20395;-85
2023/09/26 10:37:18;;;;;;;9.50;6.75;;;;;;;19.83;75.58;102057.03;6279853;22;20016;-86
2023/09/26 10:39:45;;;;;;;12.35;6.50;;;;;;;19.84;73.78;102053.84;6280684;22;20012;-86
2023/09/26 10:42:22;;;;;;;7.93;5.97;;;;;;;19.84;72.71;102058.50;6279542;22;20910;-86
2023/09/26 10:44:52;;;;;;;6.13;5.63;;;;;;;19.78;71.43;102063.09;6280707;22;20016;-85
2023/09/26 10:47:21;;;;;;;6.13;5.60;;;;;;;19.77;71.32;102067.00;6279994;22;20012;-85
2023/09/26 10:49:48;;;;;;;5.25;4.85;;;;;;;19.83;70.92;102062.44;6278869;22;20450;-86
2023/09/26 10:52:15;;;;;;;7.43;5.03;;;;;;;19.85;72.55;102055.34;6280524;22;20031;-85
2023/09/26 10:54:43;;;;;;;5.35;4.88;;;;;;;19.86;71.91;102066.91;6278611;22;20055;-85
2023/09/26 10:57:26;;;;;;;6.13;5.53;;;;;;;19.81;71.58;102060.19;6278315;22;20070;-85
2023/09/26 10:59:54;;;;;;;6.97;5.22;;;;;;;19.81;70.57;102056.75;6253559;22;20417;-84
2023/09/26 11:02:21;;;;;;;6.13;5.03;;;;;;;19.85;71.15;102051.91;6278289;22;20026;-84
2023/09/26 11:04:48;;;;;;;6.75;5.85;;;;;;;19.86;70.90;102050.69;6278853;22;20024;-84
2023/09/26 11:07:15;;;;;;;7.85;6.10;;;;;;;19.90;71.32;102049.25;6282937;22;20037;-84
2023/09/26 11:09:44;;;;;;;8.77;6.00;;;;;;;20.03;70.23;102050.88;6258043;22;20016;-84
2023/09/26 11:12:12;;;;;;;9.48;5.95;;;;;;;20.14;70.26;102049.03;6279960;22;20074;-83
2023/09/26 11:14:39;;;;;;;7.70;6.10;;;;;;;20.18;69.54;102046.13;6280669;22;20070;-84
2023/09/26 11:17:08;;;;;;;6.10;5.60;;;;;;;20.20;70.65;102049.84;6278890;22;20024;-84
2023/09/26 11:19:36;;;;;;;5.90;5.40;;;;;;;20.22;70.15;102041.25;6281066;22;20016;-84